Time;durP1;ratioP1;P1;durP2;ratioP2;P2;SDS_P1;SDS_P2;PMS_P1;PMS_P2;Temp;Humidity;BMP_temperature;BMP_pressure;BME280_temperature;BME280_humidity;BME280_pressure;Samples;Min_cycle;Max_cycle;Signal;HPM_P1;HPM_P2
2023/02/15 00:01:57;;;;;;;6.05;3.30;;;21.90;47.20;;;;;;5023256;28;20069;-68
2023/02/15 00:04:45;;;;;;;6.38;3.28;;;21.90;47.20;;;;;;5022287;28;20497;-67
2023/02/15 00:07:10;;;;;;;5.38;2.78;;;21.80;47.20;;;;;;5022607;28;20709;-68
2023/02/15 00:09:36;;;;;;;6.03;3.38;;;21.80;47.20;;;;;;5022618;28;20029;-67
2023/02/15 00:12:01;;;;;;;5.38;2.80;;;21.70;47.20;;;;;;5037323;28;20030;-66
2023/02/15 00:14:27;;;;;;;5.88;3.00;;;21.70;47.30;;;;;;5022868;28;20038;-67
2023/02/15 00:16:54;;;;;;;5.28;2.90;;;21.70;47.30;;;;;;5023148;28;20083;-66
2023/02/15 00:19:21;;;;;;;4.85;2.92;;;21.70;47.40;;;;;;5021030;28;20040;-66
2023/02/15 00:21:48;;;;;;;3.97;2.53;;;21.70;47.50;;;;;;5021600;28;20457;-67
2023/02/15 00:24:16;;;;;;;4.43;2.88;;;21.60;47.40;;;;;;5023419;28;20468;-68
2023/02/15 00:26:42;;;;;;;4.43;2.38;;;21.60;47.50;;;;;;5022834;28;20021;-67
2023/02/15 00:29:10;;;;;;;4.22;2.47;;;21.50;47.50;;;;;;5020638;28;20511;-68
2023/02/15 00:31:36;;;;;;;4.00;2.40;;;21.50;47.60;;;;;;5020499;28;20180;-68
2023/02/15 00:34:05;;;;;;;5.35;2.95;;;21.50;47.60;;;;;;5020026;28;20029;-68
2023/02/15 00:36:31;;;;;;;4.90;2.67;;;21.50;47.70;;;;;;5023103;28;20034;-67
2023/02/15 00:38:56;;;;;;;4.63;2.30;;;21.40;47.60;;;;;;5024168;28;20040;-67
2023/02/15 00:41:22;;;;;;;5.10;2.53;;;21.40;47.70;;;;;;5025131;28;20416;-67
2023/02/15 00:43:48;;;;;;;4.45;2.70;;;21.40;47.80;;;;;;5020210;28;20090;-67
2023/02/15 00:46:13;;;;;;;4.38;2.70;;;21.40;47.80;;;;;;5021097;28;20049;-67
2023/02/15 00:48:39;;;;;;;4.20;2.45;;;21.30;47.80;;;;;;5021265;28;20037;-67
2023/02/15 00:51:04;;;;;;;4.07;2.38;;;21.30;47.80;;;;;;5021023;28;20021;-67
2023/02/15 00:53:30;;;;;;;4.95;2.60;;;21.30;47.90;;;;;;5025064;28;20815;-67
2023/02/15 00:55:57;;;;;;;4.53;2.40;;;21.20;47.80;;;;;;5024170;28;20064;-67
2023/02/15 00:58:23;;;;;;;4.30;2.40;;;21.20;47.90;;;;;;5023190;28;20037;-67
2023/02/15 01:00:49;;;;;;;3.92;2.30;;;21.20;48.00;;;;;;5021802;28;20427;-67
2023/02/15 01:03:16;;;;;;;5.05;2.20;;;21.20;48.00;;;;;;5022529;28;20045;-66
2023/02/15 01:05:42;;;;;;;4.05;2.22;;;21.10;48.00;;;;;;5018409;28;20117;-67
2023/02/15 01:08:08;;;;;;;3.65;2.25;;;21.10;48.00;;;;;;5020182;28;20107;-66
2023/02/15 01:10:35;;;;;;;3.42;2.05;;;21.10;48.10;;;;;;5020925;28;20444;-67
2023/02/15 01:13:01;;;;;;;3.40;2.00;;;21.10;48.00;;;;;;5023144;28;20022;-67
2023/02/15 01:15:27;;;;;;;3.60;2.20;;;21.10;48.10;;;;;;5021934;28;20029;-68
2023/02/15 01:17:53;;;;;;;3.83;2.10;;;21.00;48.10;;;;;;5022039;28;20389;-68
2023/02/15 01:20:24;;;;;;;4.03;2.40;;;21.00;48.10;;;;;;5022449;28;20032;-68
2023/02/15 01:22:50;;;;;;;4.10;2.25;;;21.00;48.20;;;;;;5019526;28;20102;-68
2023/02/15 01:25:17;;;;;;;3.75;2.10;;;21.00;48.20;;;;;;5019459;28;20116;-68
2023/02/15 01:27:43;;;;;;;4.43;2.00;;;20.90;48.20;;;;;;5019932;28;20025;-68
2023/02/15 01:30:10;;;;;;;4.15;2.30;;;20.90;48.30;;;;;;5021074;28;20045;-68
2023/02/15 01:32:35;;;;;;;3.83;2.08;;;20.90;48.30;;;;;;5021194;28;20029;-68
2023/02/15 01:35:02;;;;;;;4.75;2.40;;;20.80;48.30;;;;;;5017759;28;20141;-68
2023/02/15 01:37:31;;;;;;;4.40;2.28;;;20.80;48.30;;;;;;5025063;28;20017;-68
2023/02/15 01:39:56;;;;;;;4.40;2.20;;;20.80;48.40;;;;;;5022060;28;20465;-68
2023/02/15 01:42:24;;;;;;;3.92;2.30;;;20.80;48.50;;;;;;5021287;28;20060;-68
2023/02/15 01:44:59;;;;;;;3.50;2.22;;;20.80;48.50;;;;;;5020261;28;20325;-68
2023/02/15 01:47:42;;;;;;;3.58;2.10;;;20.70;48.50;;;;;;5018159;28;20104;-68
2023/02/15 01:50:14;;;;;;;4.05;1.77;;;20.70;48.50;;;;;;5017193;28;20025;-68
2023/02/15 01:52:49;;;;;;;3.65;2.17;;;20.70;48.60;;;;;;5021279;28;20053;-68
2023/02/15 01:55:15;;;;;;;4.47;2.45;;;20.70;48.60;;;;;;5020784;28;20109;-68
2023/02/15 01:57:43;;;;;;;4.00;2.30;;;20.60;48.60;;;;;;5022108;28;20033;-68
2023/02/15 02:00:09;;;;;;;4.03;2.20;;;20.60;48.60;;;;;;5013660;28;20063;-68
2023/02/15 02:02:35;;;;;;;3.47;2.53;;;20.60;48.70;;;;;;5019752;28;20508;-68
2023/02/15 02:05:06;;;;;;;3.75;2.40;;;20.60;48.70;;;;;;5019146;28;20057;-68
2023/02/15 02:07:36;;;;;;;3.83;2.10;;;20.50;48.70;;;;;;5020498;28;20112;-68
2023/02/15 02:10:03;;;;;;;3.20;2.10;;;20.50;48.70;;;;;;5018549;28;20446;-67
2023/02/15 02:12:29;;;;;;;3.63;2.13;;;20.50;48.70;;;;;;5018731;28;20029;-67
2023/02/15 02:14:56;;;;;;;3.08;1.88;;;20.50;48.80;;;;;;5018678;28;20670;-67
2023/02/15 02:17:41;;;;;;;3.35;2.03;;;20.50;48.80;;;;;;5015905;28;20033;-68
2023/02/15 02:20:23;;;;;;;3.38;2.00;;;20.50;48.80;;;;;;5016757;28;20115;-67
2023/02/15 02:23:07;;;;;;;3.25;1.90;;;20.40;48.80;;;;;;5018855;28;20029;-67
2023/02/15 02:25:56;;;;;;;3.40;2.30;;;20.40;48.80;;;;;;5020307;28;20504;-67
2023/02/15 02:28:24;;;;;;;;;;;20.40;48.80;;;;;;5021497;28;20588;-68
2023/02/15 02:31:20;;;;;;;3.78;2.15;;;20.40;48.90;;;;;;5020671;28;19959;-68
2023/02/15 02:34:01;;;;;;;3.15;1.95;;;20.40;48.90;;;;;;5020727;28;20480;-68
2023/02/15 02:36:59;;;;;;;3.28;1.80;;;20.40;49.00;;;;;;5020002;28;20029;-69
2023/02/15 02:39:37;;;;;;;2.80;1.83;;;20.30;48.90;;;;;;4984180;28;20477;-68
2023/02/15 02:42:18;;;;;;;2.92;2.00;;;20.30;48.90;;;;;;5017867;28;20347;-68
2023/02/15 02:44:49;;;;;;;3.45;2.08;;;20.30;49.00;;;;;;5020702;28;20056;-68
2023/02/15 02:47:32;;;;;;;3.42;1.90;;;20.30;49.00;;;;;;5019072;28;20040;-68
2023/02/15 02:50:00;;;;;;;2.95;2.10;;;20.30;49.00;;;;;;5019310;28;20474;-68
2023/02/15 02:52:41;;;;;;;2.67;1.65;;;20.30;49.00;;;;;;5015741;28;20030;-68
2023/02/15 02:55:35;;;;;;;2.67;1.65;;;20.30;49.10;;;;;;5017237;28;20026;-68
2023/02/15 02:58:06;;;;;;;3.10;1.92;;;20.20;49.00;;;;;;5021260;28;20366;-68
2023/02/15 03:00:37;;;;;;;3.53;1.90;;;20.30;49.10;;;;;;5020709;28;20026;-68
2023/02/15 03:03:10;;;;;;;2.95;1.67;;;20.20;49.60;;;;;;5020498;28;20034;-68
2023/02/15 03:05:40;;;;;;;3.00;1.80;;;20.20;49.10;;;;;;5015755;28;20417;-68
2023/02/15 03:08:09;;;;;;;3.33;1.80;;;20.20;49.10;;;;;;5019817;28;20095;-68
2023/02/15 03:10:38;;;;;;;3.10;1.85;;;20.20;49.60;;;;;;5019973;28;20419;-68
2023/02/15 03:13:04;;;;;;;2.20;1.40;;;20.20;49.10;;;;;;5013788;28;20040;-68
2023/02/15 03:18:22;;;;;;;2.67;1.73;;;20.20;49.10;;;;;;5019935;28;20072;-68
2023/02/15 03:20:51;;;;;;;2.40;1.50;;;20.20;49.10;;;;;;5018789;28;20088;-68
2023/02/15 03:23:22;;;;;;;2.70;1.45;;;20.20;49.20;;;;;;5018243;28;20030;-68
2023/02/15 03:25:55;;;;;;;2.90;1.42;;;20.10;49.10;;;;;;5021831;28;20533;-68
2023/02/15 03:28:27;;;;;;;1.98;1.30;;;20.20;49.20;;;;;;5016093;28;20044;-69
2023/02/15 03:30:58;;;;;;;2.05;1.30;;;20.20;49.20;;;;;;5018951;28;20476;-69
2023/02/15 03:33:25;;;;;;;2.58;1.50;;;20.10;49.10;;;;;;5018596;28;20028;-69
2023/02/15 03:36:02;;;;;;;2.25;1.40;;;20.10;49.20;;;;;;5021565;28;20032;-68
2023/02/15 03:38:45;;;;;;;2.20;1.40;;;20.10;49.20;;;;;;5015926;28;20037;-68
2023/02/15 03:41:13;;;;;;;2.25;1.33;;;20.10;49.20;;;;;;5018905;28;20579;-68
2023/02/15 03:44:10;;;;;;;1.60;1.20;;;20.10;49.20;;;;;;5016088;28;20018;-68
2023/02/15 03:46:51;;;;;;;1.85;1.15;;;20.10;49.40;;;;;;5015536;28;20030;-68
2023/02/15 03:49:28;;;;;;;2.00;1.10;;;20.10;49.20;;;;;;5019576;28;20075;-68
2023/02/15 03:51:57;;;;;;;2.47;1.55;;;20.00;49.10;;;;;;5019083;28;20441;-69
2023/02/15 03:54:45;;;;;;;2.30;1.40;;;20.10;49.20;;;;;;5017973;28;20029;-68
2023/02/15 04:03:02;;;;;;;2.00;1.30;;;20.00;49.30;;;;;;5019334;28;20080;-67
2023/02/15 04:05:28;;;;;;;2.25;1.20;;;20.00;49.20;;;;;;5019750;28;20387;-67
2023/02/15 04:07:54;;;;;;;1.83;1.10;;;20.00;49.30;;;;;;5015802;28;20527;-69
2023/02/15 04:13:03;;;;;;;2.17;1.23;;;20.00;49.30;;;;;;5018294;28;20052;-67
2023/02/15 04:18:13;;;;;;;2.85;1.35;;;20.00;49.30;;;;;;5020416;28;20179;-68
2023/02/15 04:26:10;;;;;;;2.22;1.35;;;19.90;49.40;;;;;;5017940;28;20112;-68
2023/02/15 04:28:36;;;;;;;2.17;1.30;;;19.90;49.40;;;;;;5023640;28;20113;-67
2023/02/15 04:31:01;;;;;;;1.80;1.10;;;19.90;49.40;;;;;;5018107;28;20022;-67
2023/02/15 04:33:27;;;;;;;1.45;1.10;;;19.90;49.40;;;;;;5019980;28;20476;-68
2023/02/15 04:35:52;;;;;;;2.10;1.23;;;19.90;49.40;;;;;;5021685;28;20036;-67
2023/02/15 04:38:18;;;;;;;2.53;1.30;;;19.90;49.40;;;;;;5018712;28;20033;-67
2023/02/15 04:40:44;;;;;;;1.65;1.15;;;19.90;49.40;;;;;;5028885;28;20033;-67
2023/02/15 04:43:09;;;;;;;1.92;1.23;;;19.90;49.50;;;;;;5020339;28;20104;-68
2023/02/15 04:45:35;;;;;;;2.38;1.50;;;19.90;49.50;;;;;;5021455;28;20230;-67
2023/02/15 04:48:00;;;;;;;2.17;1.30;;;19.90;49.50;;;;;;5018766;28;20030;-67
2023/02/15 04:50:26;;;;;;;1.83;1.20;;;19.80;49.50;;;;;;5022566;28;20430;-68
2023/02/15 04:52:52;;;;;;;2.05;1.20;;;19.80;49.50;;;;;;5021529;28;20544;-67
2023/02/15 04:55:17;;;;;;;2.13;1.20;;;19.80;49.50;;;;;;5017764;28;20129;-67
2023/02/15 04:57:43;;;;;;;1.90;1.38;;;19.80;49.50;;;;;;5021636;28;20461;-68
2023/02/15 05:00:09;;;;;;;2.47;1.27;;;19.90;49.60;;;;;;5019064;28;20025;-68
2023/02/15 05:02:34;;;;;;;1.73;1.10;;;19.80;49.60;;;;;;5023641;28;20042;-68
2023/02/15 05:05:00;;;;;;;2.03;1.35;;;19.70;49.60;;;;;;5021331;28;20635;-68
2023/02/15 05:07:25;;;;;;;2.38;1.30;;;19.80;49.70;;;;;;5019220;28;20030;-68
2023/02/15 05:09:51;;;;;;;1.80;1.20;;;19.80;49.80;;;;;;5022341;28;20862;-67
2023/02/15 05:12:17;;;;;;;2.17;1.42;;;19.80;49.90;;;;;;5021114;28;20071;-68
2023/02/15 05:14:42;;;;;;;1.90;1.20;;;19.80;49.90;;;;;;5020576;28;20065;-68
2023/02/15 05:17:08;;;;;;;2.10;1.27;;;19.70;49.90;;;;;;5022462;28;20030;-67
2023/02/15 05:19:33;;;;;;;2.15;1.20;;;19.70;50.00;;;;;;5021659;28;20463;-68
2023/02/15 05:21:59;;;;;;;2.10;1.38;;;19.70;50.00;;;;;;5021071;28;20084;-68
2023/02/15 05:29:55;;;;;;;2.25;1.30;;;19.70;50.00;;;;;;5022000;28;20032;-68
2023/02/15 05:32:21;;;;;;;1.90;1.25;;;19.70;50.10;;;;;;5019602;28;20030;-68
2023/02/15 05:34:46;;;;;;;2.47;1.38;;;19.70;50.10;;;;;;5019291;28;20059;-68
2023/02/15 05:37:12;;;;;;;2.20;1.40;;;19.70;50.10;;;;;;5021616;28;20035;-68
2023/02/15 05:39:37;;;;;;;2.25;1.38;;;19.70;50.10;;;;;;5020188;28;20029;-67
2023/02/15 05:42:04;;;;;;;1.80;1.20;;;19.70;50.10;;;;;;5019994;28;20049;-68
2023/02/15 05:44:29;;;;;;;2.13;1.30;;;19.70;50.10;;;;;;5014702;28;20113;-67
2023/02/15 05:46:55;;;;;;;1.58;1.10;;;19.70;50.70;;;;;;5018119;28;20076;-68
2023/02/15 05:49:20;;;;;;;1.60;1.10;;;19.70;50.30;;;;;;5020646;28;20109;-68
2023/02/15 05:51:46;;;;;;;1.92;1.30;;;19.70;50.30;;;;;;5021010;28;20435;-67
2023/02/15 05:54:12;;;;;;;2.17;1.20;;;19.60;50.30;;;;;;5020719;28;20021;-67
2023/02/15 05:56:37;;;;;;;2.28;1.30;;;19.70;50.40;;;;;;5021927;28;20429;-67
2023/02/15 05:59:03;;;;;;;1.95;1.20;;;19.60;50.30;;;;;;5019189;28;20110;-68
2023/02/15 06:01:28;;;;;;;1.60;1.10;;;19.60;50.30;;;;;;5021684;28;20042;-68
2023/02/15 06:03:55;;;;;;;2.33;1.27;;;19.60;50.30;;;;;;5021657;28;20057;-67
2023/02/15 06:06:21;;;;;;;2.20;1.30;;;19.70;50.40;;;;;;5018693;28;20021;-68
2023/02/15 06:08:47;;;;;;;3.28;1.25;;;19.60;50.30;;;;;;5019053;28;20029;-68
2023/02/15 06:11:12;;;;;;;2.80;1.60;;;19.60;50.40;;;;;;5017625;28;20034;-68
2023/02/15 06:13:38;;;;;;;1.95;1.30;;;19.60;50.40;;;;;;5020608;28;20025;-67
2023/02/15 06:16:04;;;;;;;1.75;1.30;;;19.60;50.40;;;;;;5017914;28;20029;-68
2023/02/15 06:18:29;;;;;;;1.73;1.30;;;19.60;50.40;;;;;;5019257;28;20436;-68
2023/02/15 06:20:55;;;;;;;2.17;1.20;;;19.60;50.40;;;;;;5020014;28;20026;-69
2023/02/15 06:23:20;;;;;;;1.58;1.20;;;19.70;51.40;;;;;;5019735;28;20033;-68
2023/02/15 06:25:46;;;;;;;2.20;1.30;;;19.80;51.50;;;;;;5019844;28;20369;-68
2023/02/15 06:28:12;;;;;;;2.17;1.42;;;19.90;51.50;;;;;;5017587;28;20022;-68
2023/02/15 06:30:38;;;;;;;2.30;1.42;;;20.00;51.20;;;;;;5021021;28;20034;-68
2023/02/15 06:33:03;;;;;;;2.00;1.20;;;20.10;51.10;;;;;;5016810;28;20049;-68
2023/02/15 06:35:29;;;;;;;3.53;1.42;;;20.20;50.90;;;;;;5020725;28;20108;-68
2023/02/15 06:37:55;;;;;;;2.33;1.40;;;20.30;50.70;;;;;;5018138;28;20018;-68
2023/02/15 06:40:20;;;;;;;1.83;1.00;;;20.50;50.60;;;;;;5019960;28;20034;-69
2023/02/15 06:42:46;;;;;;;2.78;1.45;;;20.60;50.60;;;;;;5014718;28;20029;-68
2023/02/15 06:45:12;;;;;;;2.22;1.27;;;20.70;50.60;;;;;;5019640;28;20470;-68
2023/02/15 06:47:38;;;;;;;2.60;1.50;;;20.80;51.00;;;;;;5022491;28;20042;-69
2023/02/15 06:50:05;;;;;;;3.47;1.60;;;20.90;50.40;;;;;;5019306;28;20544;-69
2023/02/15 06:52:30;;;;;;;2.47;1.48;;;21.00;50.30;;;;;;5024246;28;20203;-69
2023/02/15 06:54:56;;;;;;;3.03;1.45;;;21.10;50.10;;;;;;5018551;28;20112;-68
2023/02/15 06:57:22;;;;;;;2.08;1.15;;;21.20;50.00;;;;;;5019784;28;20129;-69
2023/02/15 06:59:47;;;;;;;1.70;1.25;;;21.40;49.80;;;;;;5019943;28;20030;-69
2023/02/15 07:02:13;;;;;;;1.90;1.33;;;21.50;49.50;;;;;;5020893;28;20029;-69
2023/02/15 07:04:39;;;;;;;2.17;1.30;;;21.60;49.20;;;;;;5016231;28;20139;-68
2023/02/15 07:07:08;;;;;;;2.22;1.15;;;21.80;49.30;;;;;;5019486;28;20050;-68
2023/02/15 07:09:34;;;;;;;;;;;21.90;49.00;;;;;;5016565;28;20507;-69
2023/02/15 07:14:44;;;;;;;2.00;1.38;;;22.20;48.30;;;;;;5017672;28;20119;-68
2023/02/15 07:17:09;;;;;;;2.05;1.20;;;22.30;48.10;;;;;;5018426;28;20473;-68
2023/02/15 07:19:35;;;;;;;2.72;1.40;;;22.40;47.70;;;;;;5019042;28;20040;-68
2023/02/15 07:22:00;;;;;;;2.55;1.30;;;22.50;47.50;;;;;;5017539;28;20037;-69
2023/02/15 07:24:26;;;;;;;2.28;1.25;;;22.50;47.40;;;;;;5018057;28;20152;-68
2023/02/15 07:26:52;;;;;;;2.00;1.20;;;22.50;47.40;;;;;;5022426;28;20427;-67
2023/02/15 07:29:17;;;;;;;2.50;1.33;;;22.50;47.20;;;;;;5019775;28;20025;-68
2023/02/15 07:31:45;;;;;;;2.38;1.23;;;22.60;47.30;;;;;;5016408;28;20053;-68
2023/02/15 07:34:10;;;;;;;1.83;1.10;;;22.60;47.30;;;;;;5019778;28;20458;-68
2023/02/15 07:36:36;;;;;;;2.78;1.20;;;22.60;47.20;;;;;;5021671;28;20040;-68
2023/02/15 07:39:02;;;;;;;1.65;1.02;;;22.60;47.10;;;;;;5030535;28;20057;-68
2023/02/15 07:41:28;;;;;;;1.95;1.05;;;22.60;47.10;;;;;;5026964;28;20032;-69
2023/02/15 07:43:53;;;;;;;2.03;1.10;;;22.60;47.10;;;;;;5028893;28;20032;-69
2023/02/15 07:46:20;;;;;;;1.58;0.98;;;22.60;47.10;;;;;;5040387;28;20022;-68
2023/02/15 07:48:46;;;;;;;1.75;1.00;;;22.70;47.20;;;;;;5016479;28;20030;-68
2023/02/15 07:51:14;;;;;;;2.00;1.00;;;22.60;47.10;;;;;;5024972;28;20041;-68
2023/02/15 07:53:40;;;;;;;2.03;1.10;;;22.60;47.30;;;;;;5018773;28;20057;-68
2023/02/15 07:56:13;;;;;;;1.50;1.00;;;22.70;47.30;;;;;;5021391;28;20057;-68
2023/02/15 07:58:51;;;;;;;1.80;1.13;;;22.70;47.30;;;;;;5016869;28;20034;-68
2023/02/15 08:01:20;;;;;;;1.27;0.90;;;22.60;47.20;;;;;;5020976;28;20041;-68
2023/02/15 08:03:46;;;;;;;2.55;0.90;;;22.70;47.30;;;;;;5022312;28;20109;-68
2023/02/15 08:06:13;;;;;;;1.50;0.95;;;22.60;47.30;;;;;;5020473;28;20116;-68
2023/02/15 08:08:39;;;;;;;2.10;1.00;;;22.60;47.80;;;;;;5026709;28;20025;-68
2023/02/15 08:14:02;;;;;;;1.42;1.02;;;22.60;47.20;;;;;;5028430;28;20160;-67
2023/02/15 08:16:35;;;;;;;2.00;0.80;;;22.70;47.30;;;;;;5021245;28;20026;-68
2023/02/15 08:19:22;;;;;;;1.63;0.90;;;22.70;47.20;;;;;;5020356;28;20040;-67
2023/02/15 08:21:53;;;;;;;1.90;0.85;;;22.70;47.20;;;;;;5023954;28;20103;-67
2023/02/15 08:24:21;;;;;;;2.13;1.00;;;22.70;47.30;;;;;;5025199;28;20026;-68
2023/02/15 08:26:47;;;;;;;1.35;0.80;;;22.70;47.30;;;;;;5024558;28;20048;-68
2023/02/15 08:29:18;;;;;;;1.10;0.95;;;22.70;47.20;;;;;;5022471;28;20461;-67
2023/02/15 08:31:44;;;;;;;1.10;0.90;;;22.70;47.20;;;;;;5031319;28;20084;-67
2023/02/15 08:34:13;;;;;;;3.00;1.00;;;22.70;47.20;;;;;;5019639;28;20061;-67
2023/02/15 08:36:38;;;;;;;1.60;1.00;;;22.70;47.70;;;;;;5019292;28;20076;-67
2023/02/15 08:39:06;;;;;;;1.35;0.73;;;22.70;47.10;;;;;;5016373;28;20030;-67
2023/02/15 08:41:36;;;;;;;1.20;0.90;;;22.70;47.10;;;;;;5020210;28;20025;-67
2023/02/15 08:44:05;;;;;;;1.23;0.90;;;22.70;47.00;;;;;;5022734;28;20025;-67
2023/02/15 08:46:33;;;;;;;1.67;1.00;;;22.70;47.00;;;;;;5021473;28;20481;-67
2023/02/15 08:48:59;;;;;;;1.42;0.90;;;22.70;47.10;;;;;;5018326;28;20038;-68
2023/02/15 08:51:30;;;;;;;1.15;0.90;;;22.70;47.10;;;;;;5024884;28;20485;-68
2023/02/15 08:53:59;;;;;;;1.20;0.88;;;22.70;47.10;;;;;;5023702;28;20049;-67
2023/02/15 08:56:28;;;;;;;1.52;0.90;;;22.70;47.60;;;;;;5022383;28;20055;-68
2023/02/15 08:58:55;;;;;;;1.05;0.80;;;22.70;47.10;;;;;;5020315;28;20037;-67
2023/02/15 09:01:23;;;;;;;1.08;0.80;;;22.60;47.00;;;;;;5021287;28;20476;-68
2023/02/15 09:03:54;;;;;;;1.40;0.93;;;22.70;47.10;;;;;;5019608;28;20033;-68
2023/02/15 09:06:21;;;;;;;2.25;1.05;;;22.70;47.10;;;;;;5023605;28;20116;-67
2023/02/15 09:08:48;;;;;;;1.92;0.93;;;22.60;47.00;;;;;;5022763;28;20507;-69
2023/02/15 09:11:24;;;;;;;0.65;0.65;;;22.60;47.00;;;;;;5013982;28;20084;-68
2023/02/15 09:14:00;;;;;;;1.58;0.90;;;22.60;47.00;;;;;;5021233;28;20022;-68
2023/02/15 09:16:28;;;;;;;1.67;0.90;;;22.60;47.10;;;;;;5021202;28;20038;-68
2023/02/15 09:18:54;;;;;;;1.30;0.80;;;22.60;47.10;;;;;;5020293;28;20477;-68
2023/02/15 09:21:22;;;;;;;1.48;0.90;;;22.60;47.00;;;;;;5017912;28;20030;-68
2023/02/15 09:23:50;;;;;;;1.23;0.90;;;22.60;47.10;;;;;;5019990;28;20045;-68
2023/02/15 09:26:20;;;;;;;1.17;0.80;;;22.60;47.10;;;;;;5021288;28;20030;-68
2023/02/15 09:28:48;;;;;;;1.10;0.80;;;22.50;47.10;;;;;;5022359;28;20045;-68
2023/02/15 09:31:19;;;;;;;1.20;0.88;;;22.50;47.10;;;;;;5024574;28;20077;-68
2023/02/15 09:33:46;;;;;;;1.40;0.90;;;22.50;47.20;;;;;;5021212;28;20350;-68
2023/02/15 09:36:16;;;;;;;1.95;0.90;;;22.50;47.30;;;;;;5021469;28;20026;-68
2023/02/15 09:38:42;;;;;;;2.10;1.20;;;22.50;47.30;;;;;;5019737;28;20552;-68
2023/02/15 09:41:41;;;;;;;0.80;0.70;;;22.50;47.30;;;;;;5023012;28;20121;-68
2023/02/15 09:44:44;;;;;;;0.93;0.80;;;22.50;47.20;;;;;;5021285;28;20068;-67
2023/02/15 09:47:43;;;;;;;1.60;1.00;;;22.50;47.10;;;;;;5020511;28;20643;-67
2023/02/15 09:50:27;;;;;;;;;;;22.50;47.10;;;;;;5024238;28;20060;-67
2023/02/15 09:53:15;;;;;;;1.58;0.90;;;22.40;47.00;;;;;;5018373;28;19996;-68
2023/02/15 09:56:17;;;;;;;1.33;0.80;;;22.50;47.10;;;;;;5015398;28;20044;-68
2023/02/15 09:58:52;;;;;;;2.83;0.90;;;22.50;47.00;;;;;;5018917;28;20034;-68
2023/02/15 10:01:48;;;;;;;1.35;0.90;;;22.50;47.20;;;;;;5018383;28;20033;-68
2023/02/15 10:04:26;;;;;;;1.08;0.85;;;22.40;47.10;;;;;;5019906;28;20026;-68
2023/02/15 10:07:13;;;;;;;0.73;0.70;;;22.50;47.10;;;;;;5017945;28;20017;-68
2023/02/15 10:10:11;;;;;;;1.58;0.90;;;22.40;47.20;;;;;;5018536;28;20026;-68
2023/02/15 10:12:54;;;;;;;1.60;1.00;;;22.40;47.20;;;;;;5016921;28;20053;-67
2023/02/15 10:15:52;;;;;;;2.38;0.90;;;22.40;47.20;;;;;;5020510;28;20025;-68
2023/02/15 10:18:35;;;;;;;1.35;0.80;;;22.40;47.20;;;;;;5019861;28;20033;-68
2023/02/15 10:21:40;;;;;;;1.15;0.93;;;22.40;47.50;;;;;;5022532;28;20112;-68
2023/02/15 10:24:14;;;;;;;2.42;1.20;;;22.50;46.60;;;;;;5020101;28;20049;-68
2023/02/15 10:26:45;;;;;;;1.63;0.90;;;22.50;46.20;;;;;;5020909;28;20049;-68
2023/02/15 10:29:17;;;;;;;1.65;1.10;;;22.50;45.90;;;;;;5017225;28;20056;-68
2023/02/15 10:31:45;;;;;;;2.88;1.10;;;22.50;45.70;;;;;;5020314;28;20476;-69
2023/02/15 10:34:39;;;;;;;1.70;1.20;;;22.50;45.60;;;;;;5019728;28;20160;-69
2023/02/15 10:37:26;;;;;;;1.45;1.00;;;22.50;45.60;;;;;;5017966;28;20397;-68
2023/02/15 10:40:10;;;;;;;1.17;1.02;;;22.50;46.50;;;;;;5016471;28;20034;-68
2023/02/15 10:42:44;;;;;;;2.17;1.27;;;22.70;46.20;;;;;;5018028;28;20422;-68
2023/02/15 10:45:38;;;;;;;1.63;1.00;;;23.00;46.10;;;;;;5018792;28;20120;-68
2023/02/15 10:48:35;;;;;;;1.88;1.00;;;23.10;46.20;;;;;;5017276;28;20355;-69
2023/02/15 10:51:05;;;;;;;1.90;1.10;;;23.20;46.50;;;;;;5018396;28;20430;-69
2023/02/15 10:53:57;;;;;;;1.58;0.98;;;23.20;47.00;;;;;;5019317;28;20028;-69
2023/02/15 10:56:53;;;;;;;1.20;0.98;;;23.30;47.10;;;;;;5019636;28;20033;-69
2023/02/15 10:59:39;;;;;;;1.40;0.93;;;23.40;47.20;;;;;;5016889;28;20037;-69
2023/02/15 11:02:26;;;;;;;2.35;1.00;;;23.50;47.40;;;;;;5019326;28;20033;-69
2023/02/15 11:05:28;;;;;;;3.83;1.00;;;23.60;47.40;;;;;;5019142;28;20025;-69
2023/02/15 11:07:57;;;;;;;2.45;1.00;;;23.80;47.50;;;;;;5017119;28;20018;-69
2023/02/15 11:10:35;;;;;;;1.50;0.80;;;23.90;47.50;;;;;;5020878;28;20116;-69
2023/02/15 11:13:11;;;;;;;2.10;1.10;;;24.10;47.40;;;;;;5018038;28;20056;-69
2023/02/15 11:15:42;;;;;;;0.80;0.70;;;24.30;47.40;;;;;;5018999;28;20034;-70
2023/02/15 11:18:21;;;;;;;0.60;0.60;;;24.40;47.40;;;;;;5018728;28;20018;-69
2023/02/15 11:20:55;;;;;;;0.73;0.70;;;24.50;47.00;;;;;;5017041;28;20036;-69
2023/02/15 11:23:23;;;;;;;1.48;0.80;;;24.50;47.30;;;;;;5014165;28;20037;-69
2023/02/15 11:26:01;;;;;;;1.15;0.80;;;24.50;47.80;;;;;;5017899;28;20030;-69
2023/02/15 11:28:34;;;;;;;2.13;0.88;;;24.60;47.50;;;;;;5018405;28;20033;-69
2023/02/15 11:31:11;;;;;;;1.05;0.70;;;24.90;47.20;;;;;;5017521;28;20068;-70
2023/02/15 11:33:42;;;;;;;1.40;0.68;;;25.10;46.90;;;;;;5014565;28;20156;-69
2023/02/15 11:36:17;;;;;;;1.10;0.65;;;25.00;46.90;;;;;;5018317;28;20048;-70
2023/02/15 11:38:43;;;;;;;1.30;0.82;;;24.90;47.10;;;;;;5021798;28;20041;-69
2023/02/15 11:41:19;;;;;;;1.33;1.10;;;24.90;45.10;;;;;;5022800;28;20030;-70
2023/02/15 11:44:00;;;;;;;1.98;1.20;;;24.80;42.70;;;;;;5019705;28;20021;-69
2023/02/15 11:46:25;;;;;;;1.27;0.93;;;24.70;42.30;;;;;;5021949;28;20025;-69
2023/02/15 11:48:51;;;;;;;1.73;0.85;;;24.60;43.10;;;;;;5021058;28;20114;-69
2023/02/15 11:51:20;;;;;;;1.10;0.88;;;24.60;43.50;;;;;;5023829;28;20029;-69
2023/02/15 11:53:47;;;;;;;1.42;0.93;;;24.50;43.70;;;;;;5022769;28;20032;-69
2023/02/15 11:56:16;;;;;;;0.98;0.70;;;24.50;43.90;;;;;;5022377;28;20060;-69
2023/02/15 11:58:50;;;;;;;1.00;0.63;;;24.50;44.10;;;;;;5022298;28;20029;-69
2023/02/15 12:01:25;;;;;;;0.85;0.70;;;24.40;44.20;;;;;;5023249;28;20056;-68
2023/02/15 12:03:57;;;;;;;0.70;0.70;;;24.40;44.20;;;;;;5024923;28;20029;-68
2023/02/15 12:06:33;;;;;;;1.00;0.70;;;24.40;44.30;;;;;;5023980;28;20061;-69
2023/02/15 12:09:21;;;;;;;1.15;0.80;;;24.40;44.30;;;;;;5020763;28;20033;-69
2023/02/15 12:11:47;;;;;;;0.88;0.80;;;24.30;44.30;;;;;;5022265;28;20045;-69
2023/02/15 12:14:16;;;;;;;0.82;0.80;;;24.30;44.50;;;;;;5022199;28;20093;-69
2023/02/15 12:16:53;;;;;;;1.00;0.80;;;24.30;44.50;;;;;;5023223;28;20050;-68
2023/02/15 12:19:36;;;;;;;1.08;0.90;;;24.30;44.50;;;;;;5020712;28;20030;-69
2023/02/15 12:22:04;;;;;;;1.17;0.90;;;24.30;44.60;;;;;;5022932;28;20572;-69
2023/02/15 12:24:37;;;;;;;1.00;0.75;;;24.30;44.60;;;;;;5015397;28;20338;-68
2023/02/15 12:27:13;;;;;;;1.25;0.85;;;24.30;44.70;;;;;;5019659;28;20218;-68
2023/02/15 12:29:49;;;;;;;1.13;0.70;;;24.30;44.70;;;;;;5022955;28;20022;-68
2023/02/15 12:32:26;;;;;;;1.15;0.80;;;24.30;44.80;;;;;;5022312;28;20409;-68
2023/02/15 12:34:55;;;;;;;1.50;0.80;;;24.20;44.80;;;;;;5022120;28;20117;-69
2023/02/15 12:37:25;;;;;;;1.13;0.90;;;24.20;44.90;;;;;;5020301;28;20042;-69
2023/02/15 12:39:59;;;;;;;2.05;0.70;;;24.20;44.90;;;;;;5021537;28;20037;-68
2023/02/15 12:42:28;;;;;;;1.50;1.00;;;24.20;45.50;;;;;;5022845;28;20232;-68
2023/02/15 12:44:55;;;;;;;;;;;24.20;45.10;;;;;;5021589;28;20026;-68
2023/02/15 12:47:23;;;;;;;0.60;0.60;;;24.20;44.90;;;;;;5022089;28;19924;-68
2023/02/15 12:50:27;;;;;;;0.90;0.70;;;24.10;45.50;;;;;;5024835;28;20384;-68
2023/02/15 12:53:07;;;;;;;0.90;0.70;;;24.10;45.70;;;;;;5014897;28;20061;-68
2023/02/15 12:55:33;;;;;;;1.00;0.70;;;24.20;45.30;;;;;;5022552;28;20504;-69
2023/02/15 12:58:05;;;;;;;1.00;0.80;;;24.10;46.10;;;;;;5020953;28;20025;-68
2023/02/15 13:00:31;;;;;;;1.17;0.70;;;24.10;45.50;;;;;;5019755;28;20076;-68
2023/02/15 13:02:59;;;;;;;1.55;0.80;;;24.10;45.50;;;;;;5020906;28;20069;-69
2023/02/15 13:05:38;;;;;;;1.90;0.80;;;24.10;45.60;;;;;;5024105;28;20088;-68
2023/02/15 13:08:10;;;;;;;;;;;24.10;45.50;;;;;;5021650;28;20117;-69
2023/02/15 13:10:52;;;;;;;1.20;0.75;;;24.10;45.50;;;;;;5022024;28;20282;-68
2023/02/15 13:13:21;;;;;;;2.33;0.85;;;24.10;46.00;;;;;;5021632;28;20026;-67
2023/02/15 13:15:50;;;;;;;1.15;0.80;;;24.10;45.90;;;;;;5030268;28;20029;-68
2023/02/15 13:18:26;;;;;;;3.00;0.85;;;24.10;46.10;;;;;;5018618;28;20171;-67
2023/02/15 13:20:52;;;;;;;1.75;0.80;;;24.10;46.10;;;;;;5023335;28;20026;-67
2023/02/15 13:23:37;;;;;;;1.95;0.80;;;24.10;46.30;;;;;;5019840;28;20056;-68
2023/02/15 13:26:08;;;;;;;1.50;0.88;;;24.10;46.10;;;;;;5021092;28;20457;-68
2023/02/15 13:28:45;;;;;;;1.67;0.90;;;24.10;45.90;;;;;;5020838;28;20021;-67
2023/02/15 13:31:23;;;;;;;1.48;0.77;;;24.10;47.10;;;;;;5019154;28;20542;-67
2023/02/15 13:33:52;;;;;;;2.80;1.00;;;24.10;46.70;;;;;;5021060;28;20033;-67
2023/02/15 13:36:34;;;;;;;2.28;0.82;;;24.10;46.80;;;;;;5023986;28;20041;-68
2023/02/15 13:39:21;;;;;;;2.70;1.10;;;24.10;46.20;;;;;;5024926;28;20018;-67
2023/02/15 13:41:52;;;;;;;1.75;1.10;;;24.10;46.10;;;;;;5023989;28;20037;-68